Time;durP1;ratioP1;P1;durP2;ratioP2;P2;SDS_P1;SDS_P2;PMS_P1;PMS_P2;Temp;Humidity;BMP_temperature;BMP_pressure;BME280_temperature;BME280_humidity;BME280_pressure;Samples;Min_cycle;Max_cycle;Signal;HPM_P1;HPM_P2
2022/04/07 00:02:10;;;;;;;;;;;9.80;99.90;;;;;;5114579;28;19915;-45
2022/04/07 00:04:35;;;;;;;;;;;9.90;99.90;;;;;;5114903;28;20265;-45
2022/04/07 00:07:01;;;;;;;;;;;9.90;99.90;;;;;;5114806;28;20299;-45
2022/04/07 00:09:26;;;;;;;;;;;9.80;99.90;;;;;;5114811;28;19912;-43
2022/04/07 00:11:52;;;;;;;;;;;9.80;99.90;;;;;;5114829;28;19977;-44
2022/04/07 00:14:17;;;;;;;;;;;9.90;99.90;;;;;;5114698;28;19915;-42
2022/04/07 00:16:43;;;;;;;;;;;9.90;99.90;;;;;;5114680;28;20012;-43
2022/04/07 00:19:09;;;;;;;;;;;9.90;99.90;;;;;;5114613;28;19908;-44
2022/04/07 00:21:40;;;;;;;;;;;9.90;99.90;;;;;;5114286;28;19930;-43
2022/04/07 00:24:06;;;;;;;;;;;9.90;99.90;;;;;;5114362;28;19915;-42
2022/04/07 00:26:32;;;;;;;;;;;9.90;99.90;;;;;;5114104;28;19915;-42
2022/04/07 00:28:58;;;;;;;;;;;9.90;99.90;;;;;;5114484;28;19918;-42
2022/04/07 00:31:24;;;;;;;;;;;9.90;99.90;;;;;;5112951;28;19920;-44
2022/04/07 00:33:50;;;;;;;;;;;9.90;99.90;;;;;;5114202;28;19915;-45
2022/04/07 00:36:15;;;;;;;;;;;9.80;99.90;;;;;;5113667;28;19907;-43
2022/04/07 00:38:41;;;;;;;;;;;9.80;99.90;;;;;;5114660;28;19908;-44
2022/04/07 00:41:06;;;;;;;;;;;9.70;99.90;;;;;;5114035;28;19911;-43
2022/04/07 00:43:32;;;;;;;;;;;9.70;99.90;;;;;;5114315;28;20034;-45
2022/04/07 00:45:59;;;;;;;;;;;9.70;99.90;;;;;;5114348;28;20373;-46
2022/04/07 00:48:25;;;;;;;;;;;9.60;99.90;;;;;;5114069;28;19912;-43
2022/04/07 00:50:50;;;;;;;;;;;9.60;99.90;;;;;;5114147;28;19915;-42
2022/04/07 00:53:16;;;;;;;;;;;9.60;99.90;;;;;;5113799;28;19908;-42
2022/04/07 00:55:42;;;;;;;;;;;9.60;99.90;;;;;;5113933;28;19908;-43
2022/04/07 00:58:08;;;;;;;;;;;9.60;99.90;;;;;;5114154;28;19961;-43
2022/04/07 01:00:34;;;;;;;;;;;9.70;99.90;;;;;;5114187;28;19974;-43
2022/04/07 01:03:00;;;;;;;;;;;9.70;99.90;;;;;;5113778;28;19914;-47
2022/04/07 01:05:25;;;;;;;;;;;9.70;99.90;;;;;;5113868;28;20382;-45
2022/04/07 01:07:51;;;;;;;;;;;9.70;99.90;;;;;;5113967;28;20376;-44
2022/04/07 01:10:19;;;;;;;;;;;9.70;99.90;;;;;;5113656;28;19957;-43
2022/04/07 01:12:44;;;;;;;;;;;9.70;99.90;;;;;;5114068;28;19908;-43
2022/04/07 01:15:10;;;;;;;;;;;9.80;99.90;;;;;;5113713;28;19908;-44
2022/04/07 01:17:36;;;;;;;;;;;9.80;99.90;;;;;;5113687;28;20358;-43
2022/04/07 01:20:05;;;;;;;;;;;9.80;99.90;;;;;;5113859;28;20381;-41
2022/04/07 01:22:34;;;;;;;;;;;9.90;99.90;;;;;;5113509;28;19950;-44
2022/04/07 01:25:00;;;;;;;;;;;9.90;99.90;;;;;;5113834;28;19915;-45
2022/04/07 01:27:25;;;;;;;;;;;9.90;99.90;;;;;;5112481;28;19912;-42
2022/04/07 01:29:56;;;;;;;;;;;9.90;99.90;;;;;;5113434;28;19919;-42
2022/04/07 01:32:30;;;;;;;;;;;10.00;99.90;;;;;;5113531;28;20015;-43
2022/04/07 01:34:56;;;;;;;;;;;10.00;99.90;;;;;;5113510;28;19908;-42
2022/04/07 01:37:21;;;;;;;;;;;10.00;99.90;;;;;;5113940;28;19929;-43
2022/04/07 01:39:48;;;;;;;;;;;10.10;99.90;;;;;;5113808;28;19908;-42
2022/04/07 01:42:14;;;;;;;;;;;10.10;99.90;;;;;;5113519;28;19973;-43
2022/04/07 01:44:42;;;;;;;;;;;10.10;99.90;;;;;;5113465;28;19908;-43
2022/04/07 01:47:08;;;;;;;;;;;10.20;99.90;;;;;;5113284;28;20361;-49
2022/04/07 01:49:35;;;;;;;;;;;10.20;99.90;;;;;;5116103;28;19933;-43
2022/04/07 01:52:02;;;;;;;;;;;10.20;99.90;;;;;;5117149;28;19931;-44
2022/04/07 01:54:28;;;;;;;;;;;10.30;99.90;;;;;;5117320;28;20312;-46
2022/04/07 01:56:53;;;;;;;;;;;10.30;99.90;;;;;;5117372;28;19963;-43
2022/04/07 01:59:19;;;;;;;;;;;10.30;99.90;;;;;;5116895;28;19912;-45
2022/04/07 02:01:45;;;;;;;;;;;10.30;99.90;;;;;;5117166;28;19931;-44
2022/04/07 02:04:11;;;;;;;;;;;10.30;99.90;;;;;;5116797;28;20346;-45
2022/04/07 02:06:36;;;;;;;;;;;10.30;99.90;;;;;;5116636;28;19919;-43
2022/04/07 02:09:02;;;;;;;;;;;10.30;99.90;;;;;;5116546;28;20086;-44
2022/04/07 02:11:28;;;;;;;;;;;10.20;99.90;;;;;;5116991;28;19908;-45
2022/04/07 02:13:54;;;;;;;;;;;10.30;99.90;;;;;;5116958;28;20273;-45
2022/04/07 02:16:22;;;;;;;;;;;10.30;99.90;;;;;;5116683;28;20010;-43
2022/04/07 02:18:48;;;;;;;;;;;10.40;99.90;;;;;;5116688;28;19958;-42
2022/04/07 02:21:14;;;;;;;;;;;10.40;99.90;;;;;;5116621;28;19908;-43
2022/04/07 02:23:42;;;;;;;;;;;10.40;99.90;;;;;;5116735;28;19908;-43
2022/04/07 02:26:16;;;;;;;;;;;10.40;99.90;;;;;;5116586;28;19912;-45
2022/04/07 02:28:41;;;;;;;;;;;10.50;99.90;;;;;;5116506;28;19912;-42
2022/04/07 02:31:07;;;;;;;;;;;10.50;99.90;;;;;;5115970;28;19911;-44
2022/04/07 02:33:36;;;;;;;;;;;10.50;99.90;;;;;;5116577;28;19919;-43
2022/04/07 02:36:04;;;;;;;;;;;10.40;99.90;;;;;;5116529;28;19908;-42
2022/04/07 02:38:30;;;;;;;;;;;10.40;99.90;;;;;;5116390;28;20002;-43
2022/04/07 02:40:56;;;;;;;;;;;10.30;99.90;;;;;;5116436;28;19950;-45
2022/04/07 02:43:21;;;;;;;;;;;10.30;99.90;;;;;;5116065;28;20380;-42
2022/04/07 02:45:47;;;;;;;;;;;10.30;99.90;;;;;;5115970;28;20271;-42
2022/04/07 02:48:12;;;;;;;;;;;10.40;99.90;;;;;;5116029;28;19926;-45
2022/04/07 02:50:38;;;;;;;;;;;10.40;99.90;;;;;;5115692;28;19914;-44
2022/04/07 02:53:03;;;;;;;;;;;10.30;99.90;;;;;;5115894;28;19969;-42
2022/04/07 02:55:29;;;;;;;;;;;10.30;99.90;;;;;;5115640;28;19953;-45
2022/04/07 02:57:58;;;;;;;;;;;10.30;99.90;;;;;;5116021;28;19908;-45
2022/04/07 03:00:24;;;;;;;;;;;10.30;99.90;;;;;;5115645;28;19911;-43
2022/04/07 03:02:49;;;;;;;;;;;10.30;99.90;;;;;;5115758;28;19931;-45
2022/04/07 03:05:15;;;;;;;;;;;10.20;99.90;;;;;;5115696;28;20276;-43
2022/04/07 03:07:41;;;;;;;;;;;10.10;99.90;;;;;;5115735;28;19934;-44
2022/04/07 03:10:07;;;;;;;;;;;10.10;99.90;;;;;;5115689;28;19912;-44
2022/04/07 03:12:33;;;;;;;;;;;10.10;99.90;;;;;;5115851;28;19912;-45
2022/04/07 03:14:58;;;;;;;;;;;10.00;99.90;;;;;;5115607;28;20224;-45
2022/04/07 03:17:24;;;;;;;;;;;9.90;99.90;;;;;;5115600;28;19915;-44
2022/04/07 03:19:49;;;;;;;;;;;9.90;99.90;;;;;;5115265;28;20366;-41
2022/04/07 03:22:18;;;;;;;;;;;9.80;99.90;;;;;;5115110;28;19908;-45
2022/04/07 03:24:43;;;;;;;;;;;9.80;99.90;;;;;;5114078;28;19919;-42
2022/04/07 03:27:09;;;;;;;;;;;9.70;99.90;;;;;;5113873;28;19912;-42
2022/04/07 03:29:35;;;;;;;;;;;9.70;99.90;;;;;;5115170;28;19918;-45
2022/04/07 03:32:00;;;;;;;;;;;9.70;99.90;;;;;;5115167;28;20004;-44
2022/04/07 03:34:26;;;;;;;;;;;9.60;99.90;;;;;;5114913;28;19908;-42
2022/04/07 03:36:51;;;;;;;;;;;9.60;99.90;;;;;;5115119;28;19911;-43
2022/04/07 03:39:17;;;;;;;;;;;9.60;99.90;;;;;;5115069;28;20027;-43
2022/04/07 03:41:42;;;;;;;;;;;9.50;99.90;;;;;;5114877;28;19913;-45
2022/04/07 03:44:09;;;;;;;;;;;9.50;99.90;;;;;;5114812;28;19914;-46
2022/04/07 03:46:35;;;;;;;;;;;9.50;99.90;;;;;;5114925;28;20023;-42
2022/04/07 03:49:01;;;;;;;;;;;9.40;99.90;;;;;;5114561;28;19939;-43
2022/04/07 03:51:26;;;;;;;;;;;9.40;99.90;;;;;;5114496;28;19928;-43
2022/04/07 03:53:52;;;;;;;;;;;9.30;99.90;;;;;;5114804;28;20002;-43
2022/04/07 03:56:18;;;;;;;;;;;9.30;99.90;;;;;;5114459;28;19951;-42
2022/04/07 03:58:43;;;;;;;;;;;9.20;99.90;;;;;;5114710;28;19908;-42
2022/04/07 04:01:09;;;;;;;;;;;9.20;99.90;;;;;;5114188;28;19915;-43
2022/04/07 04:03:35;;;;;;;;;;;9.20;99.90;;;;;;5114673;28;19908;-44
2022/04/07 04:06:00;;;;;;;;;;;9.10;99.90;;;;;;5114509;28;20002;-45
2022/04/07 04:08:26;;;;;;;;;;;9.10;99.90;;;;;;5114812;28;19994;-43
2022/04/07 04:10:51;;;;;;;;;;;9.10;99.90;;;;;;5113764;28;20002;-42
2022/04/07 04:13:17;;;;;;;;;;;9.10;99.90;;;;;;5113920;28;20422;-45
2022/04/07 04:15:42;;;;;;;;;;;9.10;99.90;;;;;;5114492;28;19915;-43
2022/04/07 04:18:08;;;;;;;;;;;9.10;99.90;;;;;;5114213;28;20365;-44
2022/04/07 04:20:33;;;;;;;;;;;9.10;99.90;;;;;;5114639;28;19908;-44
2022/04/07 04:22:59;;;;;;;;;;;9.10;99.90;;;;;;5114292;28;20260;-46
2022/04/07 04:25:24;;;;;;;;;;;9.00;99.90;;;;;;5114245;28;19908;-43
2022/04/07 04:27:50;;;;;;;;;;;9.00;99.90;;;;;;5113831;28;20011;-44
2022/04/07 04:30:17;;;;;;;;;;;9.00;99.90;;;;;;5113871;28;19911;-42
2022/04/07 04:32:43;;;;;;;;;;;9.00;99.90;;;;;;5114314;28;20365;-42
2022/04/07 04:35:10;;;;;;;;;;;9.00;99.90;;;;;;5113736;28;19915;-45
2022/04/07 04:37:36;;;;;;;;;;;9.00;99.90;;;;;;5114221;28;19907;-43
2022/04/07 04:40:02;;;;;;;;;;;9.00;99.90;;;;;;5114053;28;19914;-42
2022/04/07 04:42:27;;;;;;;;;;;9.00;99.90;;;;;;5113989;28;20332;-43
2022/04/07 04:44:53;;;;;;;;;;;9.00;99.90;;;;;;5113561;28;19935;-43
2022/04/07 04:47:18;;;;;;;;;;;9.00;99.90;;;;;;5114022;28;19912;-44
2022/04/07 04:49:44;;;;;;;;;;;9.00;99.90;;;;;;5113824;28;19954;-46
2022/04/07 04:52:10;;;;;;;;;;;9.00;99.90;;;;;;5113814;28;19911;-44
2022/04/07 04:54:35;;;;;;;;;;;9.10;99.90;;;;;;5113702;28;19915;-43
2022/04/07 04:57:01;;;;;;;;;;;9.00;99.90;;;;;;5113541;28;19907;-44
2022/04/07 04:59:27;;;;;;;;;;;9.00;99.90;;;;;;5114256;28;19915;-44
2022/04/07 05:01:52;;;;;;;;;;;9.10;99.90;;;;;;5113772;28;20358;-42
2022/04/07 05:04:18;;;;;;;;;;;9.00;99.90;;;;;;5113803;28;20307;-43
2022/04/07 05:06:43;;;;;;;;;;;9.10;99.90;;;;;;5113807;28;19923;-42
2022/04/07 05:09:09;;;;;;;;;;;9.10;99.90;;;;;;5113116;28;20377;-43
2022/04/07 05:11:34;;;;;;;;;;;9.10;99.90;;;;;;5113339;28;19915;-44
2022/04/07 05:14:00;;;;;;;;;;;9.20;99.90;;;;;;5113038;28;19908;-43
2022/04/07 05:16:25;;;;;;;;;;;9.20;99.90;;;;;;5113141;28;19907;-42
2022/04/07 05:18:52;;;;;;;;;;;9.20;99.90;;;;;;5112953;28;19912;-44
2022/04/07 05:21:17;;;;;;;;;;;9.20;99.90;;;;;;5113838;28;19915;-42
2022/04/07 05:23:43;;;;;;;;;;;9.20;99.90;;;;;;5116446;28;20358;-44
2022/04/07 05:26:09;;;;;;;;;;;9.10;99.90;;;;;;5117415;28;19915;-43
2022/04/07 05:28:34;;;;;;;;;;;9.10;99.90;;;;;;5116073;28;20042;-43
2022/04/07 05:31:00;;;;;;;;;;;9.10;99.90;;;;;;5117178;28;20244;-43
2022/04/07 05:33:26;;;;;;;;;;;9.20;99.90;;;;;;5117253;28;19935;-43
2022/04/07 05:35:52;;;;;;;;;;;9.20;99.90;;;;;;5115710;28;20250;-46
2022/04/07 05:38:17;;;;;;;;;;;9.30;99.90;;;;;;5115611;28;19912;-44
2022/04/07 05:40:43;;;;;;;;;;;9.30;99.90;;;;;;5116575;28;20444;-43
2022/04/07 05:43:08;;;;;;;;;;;9.40;99.90;;;;;;5117109;28;19908;-44
2022/04/07 05:45:34;;;;;;;;;;;9.40;99.90;;;;;;5116985;28;20387;-43
2022/04/07 05:48:00;;;;;;;;;;;9.30;99.90;;;;;;5116703;28;20315;-43
2022/04/07 05:50:25;;;;;;;;;;;9.40;99.90;;;;;;5116550;28;19911;-45
2022/04/07 05:52:51;;;;;;;;;;;9.50;99.90;;;;;;5116407;28;20011;-43
2022/04/07 05:55:16;;;;;;;;;;;9.50;99.90;;;;;;5116982;28;19908;-43
2022/04/07 05:57:43;;;;;;;;;;;9.60;99.90;;;;;;5116690;28;19907;-43
2022/04/07 06:00:11;;;;;;;;;;;9.60;99.90;;;;;;5116221;28;20424;-42
2022/04/07 06:02:37;;;;;;;;;;;9.60;99.90;;;;;;5115908;28;20366;-43
2022/04/07 06:05:03;;;;;;;;;;;9.60;99.90;;;;;;5115981;28;19914;-44
2022/04/07 06:07:28;;;;;;;;;;;9.70;99.90;;;;;;5115089;28;19954;-43
2022/04/07 06:09:54;;;;;;;;;;;9.80;99.90;;;;;;5115998;28;20003;-44
2022/04/07 06:12:19;;;;;;;;;;;9.90;99.90;;;;;;5115943;28;19912;-45
2022/04/07 06:14:45;;;;;;;;;;;10.00;99.90;;;;;;5115464;28;19908;-45
2022/04/07 06:17:10;;;;;;;;;;;10.10;99.90;;;;;;5116041;28;19964;-43
2022/04/07 06:19:36;;;;;;;;;;;10.10;99.90;;;;;;5115718;28;20366;-45
2022/04/07 06:22:05;;;;;;;;;;;10.10;99.90;;;;;;5115514;28;19907;-44
2022/04/07 06:24:30;;;;;;;;;;;10.10;99.90;;;;;;5116197;28;19915;-46
2022/04/07 06:26:56;;;;;;;;;;;10.10;99.90;;;;;;5115356;28;19911;-44
2022/04/07 06:29:21;;;;;;;;;;;10.10;99.90;;;;;;5115352;28;20379;-44
2022/04/07 06:31:47;;;;;;;;;;;10.00;99.90;;;;;;5114553;28;19972;-44
2022/04/07 06:34:12;;;;;;;;;;;10.00;99.90;;;;;;5115279;28;19967;-43
2022/04/07 06:36:38;;;;;;;;;;;10.00;99.90;;;;;;5115604;28;19957;-43
2022/04/07 06:39:04;;;;;;;;;;;10.00;99.90;;;;;;5115975;28;20346;-46
2022/04/07 06:41:29;;;;;;;;;;;10.10;99.90;;;;;;5115788;28;19908;-45
2022/04/07 06:43:55;;;;;;;;;;;10.30;99.90;;;;;;5115604;28;19907;-45
2022/04/07 06:46:20;;;;;;;;;;;10.30;99.90;;;;;;5115329;28;20265;-42
2022/04/07 06:48:46;;;;;;;;;;;10.40;99.90;;;;;;5115798;28;20416;-44
2022/04/07 06:51:11;;;;;;;;;;;10.50;99.90;;;;;;5115014;28;19908;-45
2022/04/07 06:53:37;;;;;;;;;;;10.70;99.90;;;;;;5115561;28;19908;-45
2022/04/07 06:56:02;;;;;;;;;;;10.70;99.90;;;;;;5115319;28;19923;-43
2022/04/07 06:58:28;;;;;;;;;;;10.90;99.90;;;;;;5115271;28;19915;-43
2022/04/07 07:00:53;;;;;;;;;;;11.00;99.90;;;;;;5114948;28;19955;-44
2022/04/07 07:03:19;;;;;;;;;;;11.10;99.90;;;;;;5115345;28;19967;-46
2022/04/07 07:05:44;;;;;;;;;;;11.20;99.90;;;;;;5115179;28;19915;-48
2022/04/07 07:08:14;;;;;;;;;;;11.30;99.90;;;;;;5115244;28;19919;-42
2022/04/07 07:10:40;;;;;;;;;;;11.40;99.90;;;;;;5115020;28;20383;-42
2022/04/07 07:13:05;;;;;;;;;;;11.40;99.90;;;;;;5113665;28;19908;-43
2022/04/07 07:15:31;;;;;;;;;;;11.40;99.90;;;;;;5114851;28;20016;-46
2022/04/07 07:17:56;;;;;;;;;;;11.50;99.90;;;;;;5114811;28;19915;-42
2022/04/07 07:20:22;;;;;;;;;;;11.60;99.90;;;;;;5114688;28;19914;-44
2022/04/07 07:22:47;;;;;;;;;;;11.70;99.90;;;;;;5113763;28;19908;-42
2022/04/07 07:25:13;;;;;;;;;;;11.70;99.90;;;;;;5115030;28;19934;-44
2022/04/07 07:27:39;;;;;;;;;;;11.80;99.90;;;;;;5114922;28;19963;-44
2022/04/07 07:30:08;;;;;;;;;;;11.80;99.90;;;;;;5113326;28;20285;-43
2022/04/07 07:32:34;;;;;;;;;;;11.90;99.90;;;;;;5114919;28;19972;-44
2022/04/07 07:34:59;;;;;;;;;;;12.00;99.90;;;;;;5114727;28;19912;-43
2022/04/07 07:37:25;;;;;;;;;;;12.10;99.90;;;;;;5114892;28;20381;-42
2022/04/07 07:39:50;;;;;;;;;;;12.20;99.90;;;;;;5113432;28;19907;-43
2022/04/07 07:42:16;;;;;;;;;;;12.30;99.90;;;;;;5114571;28;19966;-42
2022/04/07 07:44:41;;;;;;;;;;;12.40;99.90;;;;;;5114704;28;20362;-43
2022/04/07 07:47:07;;;;;;;;;;;12.30;99.90;;;;;;5113889;28;19911;-45
2022/04/07 07:49:33;;;;;;;;;;;12.20;99.90;;;;;;5114127;28;20002;-47
2022/04/07 07:51:58;;;;;;;;;;;12.40;99.90;;;;;;5114391;28;19950;-43
2022/04/07 07:54:24;;;;;;;;;;;12.60;99.90;;;;;;5114458;28;19908;-44
2022/04/07 07:56:49;;;;;;;;;;;12.50;99.90;;;;;;5114246;28;19908;-44
2022/04/07 07:59:15;;;;;;;;;;;12.70;99.90;;;;;;5114297;28;19912;-43
2022/04/07 08:01:43;;;;;;;;;;;12.60;99.90;;;;;;5114305;28;20416;-43
2022/04/07 08:04:09;;;;;;;;;;;12.90;99.90;;;;;;5114407;28;19908;-43
2022/04/07 08:06:34;;;;;;;;;;;13.00;99.90;;;;;;5114079;28;20271;-43
2022/04/07 08:09:00;;;;;;;;;;;12.90;99.90;;;;;;5114099;28;19918;-43
2022/04/07 08:11:25;;;;;;;;;;;13.10;99.90;;;;;;5114036;28;20394;-44
2022/04/07 08:13:51;;;;;;;;;;;13.10;99.90;;;;;;5114701;28;19908;-46
2022/04/07 08:16:16;;;;;;;;;;;13.00;99.90;;;;;;5113835;28;19907;-44
2022/04/07 08:18:42;;;;;;;;;;;12.90;99.90;;;;;;5112802;28;19996;-42
2022/04/07 08:21:08;;;;;;;;;;;13.00;99.90;;;;;;5113626;28;19908;-44
2022/04/07 08:23:33;;;;;;;;;;;13.20;99.90;;;;;;5114185;28;19918;-47
2022/04/07 08:25:59;;;;;;;;;;;13.30;99.90;;;;;;5113759;28;19915;-44
2022/04/07 08:28:25;;;;;;;;;;;13.40;99.90;;;;;;5113494;28;19918;-45
2022/04/07 08:30:51;;;;;;;;;;;13.60;99.90;;;;;;5113859;28;19951;-43
2022/04/07 08:33:16;;;;;;;;;;;13.60;99.90;;;;;;5113553;28;19955;-43
2022/04/07 08:35:42;;;;;;;;;;;13.50;99.90;;;;;;5113680;28;19953;-45
2022/04/07 08:38:09;;;;;;;;;;;13.60;99.90;;;;;;5113933;28;19908;-43
2022/04/07 08:40:34;;;;;;;;;;;13.60;99.30;;;;;;5113812;28;19927;-42
2022/04/07 08:43:00;;;;;;;;;;;13.70;99.80;;;;;;5113880;28;20421;-44
2022/04/07 08:45:27;;;;;;;;;;;14.00;99.80;;;;;;5113948;28;19912;-42
2022/04/07 08:47:54;;;;;;;;;;;13.90;98.90;;;;;;5113185;28;19922;-44
2022/04/07 08:50:21;;;;;;;;;;;13.90;99.70;;;;;;5113874;28;19916;-48
2022/04/07 08:52:47;;;;;;;;;;;14.10;99.70;;;;;;5113518;28;20327;-43
2022/04/07 08:55:14;;;;;;;;;;;14.30;98.60;;;;;;5113607;28;19911;-44
2022/04/07 08:57:40;;;;;;;;;;;14.30;98.60;;;;;;5113190;28;19914;-45
2022/04/07 09:00:06;;;;;;;;;;;14.40;98.30;;;;;;5118092;28;19962;-43
2022/04/07 09:02:32;;;;;;;;;;;14.40;98.20;;;;;;5118107;28;19908;-45
2022/04/07 09:05:00;;;;;;;;;;;14.60;98.90;;;;;;5117937;28;19994;-42
2022/04/07 09:07:30;;;;;;;;;;;14.60;98.20;;;;;;5116505;28;19912;-44
2022/04/07 09:10:00;;;;;;;;;;;14.20;98.10;;;;;;5117680;28;19923;-45
2022/04/07 09:12:25;;;;;;;;;;;14.20;98.60;;;;;;5117525;28;19930;-46
2022/04/07 09:14:54;;;;;;;;;;;14.40;98.00;;;;;;5117140;28;19907;-45
2022/04/07 09:17:20;;;;;;;;;;;14.70;98.20;;;;;;5117188;28;20354;-47
2022/04/07 09:19:48;;;;;;;;;;;14.80;97.30;;;;;;5117122;28;19967;-47
2022/04/07 09:22:14;;;;;;;;;;;14.90;97.40;;;;;;5117068;28;20357;-45
2022/04/07 09:24:40;;;;;;;;;;;14.90;97.10;;;;;;5117407;28;20000;-42
2022/04/07 09:27:08;;;;;;;;;;;15.30;96.60;;;;;;5117198;28;19919;-44
2022/04/07 09:29:38;;;;;;;;;;;15.40;96.50;;;;;;5117111;28;20282;-46
2022/04/07 09:32:04;;;;;;;;;;;15.40;96.20;;;;;;5117157;28;19990;-44
2022/04/07 09:34:31;;;;;;;;;;;15.30;96.50;;;;;;5117089;28;20354;-45
2022/04/07 09:37:03;;;;;;;;;;;15.30;96.20;;;;;;5116977;28;19914;-46
2022/04/07 09:39:29;;;;;;;;;;;15.20;96.50;;;;;;5117201;28;20360;-42
2022/04/07 09:41:54;;;;;;;;;;;14.90;96.60;;;;;;5116834;28;19986;-50
2022/04/07 09:44:22;;;;;;;;;;;15.20;96.40;;;;;;5117010;28;19912;-44
2022/04/07 09:46:48;;;;;;;;;;;15.40;96.20;;;;;;5116468;28;19991;-44
2022/04/07 09:49:14;;;;;;;;;;;15.30;96.50;;;;;;5115482;28;20263;-47
2022/04/07 09:51:45;;;;;;;;;;;15.30;96.20;;;;;;5116616;28;20285;-44
2022/04/07 09:54:11;;;;;;;;;;;15.40;95.70;;;;;;5116972;28;20266;-44
2022/04/07 09:56:36;;;;;;;;;;;15.60;95.70;;;;;;5116410;28;19908;-44
2022/04/07 09:59:02;;;;;;;;;;;15.70;96.00;;;;;;5116773;28;20010;-43
2022/04/07 10:01:28;;;;;;;;;;;16.00;96.30;;;;;;5116467;28;19908;-44
2022/04/07 10:03:54;;;;;;;;;;;16.30;95.30;;;;;;5116322;28;19908;-43
2022/04/07 10:06:20;;;;;;;;;;;16.30;94.90;;;;;;5116625;28;20002;-44
2022/04/07 10:08:49;;;;;;;;;;;15.90;94.80;;;;;;5114359;28;19919;-48
2022/04/07 10:11:16;;;;;;;;;;;15.70;95.50;;;;;;5115737;28;20342;-45
2022/04/07 10:13:43;;;;;;;;;;;15.50;95.80;;;;;;5114834;28;20299;-47
2022/04/07 10:16:10;;;;;;;;;;;15.60;95.20;;;;;;5115978;28;20007;-44
2022/04/07 10:18:39;;;;;;;;;;;15.70;95.30;;;;;;5116256;28;19907;-43
2022/04/07 10:21:06;;;;;;;;;;;15.90;94.60;;;;;;5116000;28;19962;-47
2022/04/07 10:23:40;;;;;;;;;;;15.80;95.70;;;;;;5116294;28;19957;-44
2022/04/07 10:26:08;;;;;;;;;;;15.90;94.90;;;;;;5114710;28;19912;-45
2022/04/07 10:28:34;;;;;;;;;;;15.60;95.70;;;;;;5115712;28;19916;-45
2022/04/07 10:30:59;;;;;;;;;;;16.00;96.30;;;;;;5114303;28;19908;-44
2022/04/07 10:33:31;;;;;;;;;;;16.30;94.70;;;;;;5115413;28;19908;-48
2022/04/07 10:35:56;;;;;;;;;;;16.60;94.80;;;;;;5116265;28;19914;-46
2022/04/07 10:38:38;;;;;;;;;;;16.50;94.20;;;;;;5115235;28;20315;-45
2022/04/07 10:41:04;;;;;;;;;;;16.40;93.90;;;;;;5115835;28;19907;-48
2022/04/07 10:43:30;;;;;;;;;;;16.70;94.10;;;;;;5115801;28;19961;-45
2022/04/07 10:46:01;;;;;;;;;;;17.00;94.30;;;;;;5115413;28;19907;-44
2022/04/07 10:48:30;;;;;;;;;;;17.00;93.60;;;;;;5115556;28;20014;-47
2022/04/07 10:51:00;;;;;;;;;;;16.90;93.60;;;;;;5115443;28;19974;-48
2022/04/07 10:53:27;;;;;;;;;;;16.70;93.00;;;;;;5115649;28;19919;-43
2022/04/07 10:56:08;;;;;;;;;;;16.50;93.50;;;;;;5115499;28;19908;-43
2022/04/07 10:58:50;;;;;;;;;;;16.20;93.30;;;;;;5113973;28;19966;-46
2022/04/07 11:01:30;;;;;;;;;;;16.10;94.50;;;;;;5115473;28;20014;-44
2022/04/07 11:04:15;;;;;;;;;;;16.20;93.80;;;;;;5115443;28;19984;-44
2022/04/07 11:07:00;;;;;;;;;;;16.40;94.10;;;;;;5115092;28;19962;-44
2022/04/07 11:09:26;;;;;;;;;;;16.40;94.70;;;;;;5115509;28;19933;-45
2022/04/07 11:11:52;;;;;;;;;;;16.40;94.10;;;;;;5115052;28;19908;-43
2022/04/07 11:14:25;;;;;;;;;;;16.30;93.50;;;;;;5115357;28;19921;-45
2022/04/07 11:16:51;;;;;;;;;;;16.30;93.50;;;;;;5115075;28;19911;-43
2022/04/07 11:19:25;;;;;;;;;;;16.10;93.30;;;;;;5115179;28;19952;-46
2022/04/07 11:21:50;;;;;;;;;;;16.20;93.70;;;;;;5115026;28;20281;-47
2022/04/07 11:24:23;;;;;;;;;;;16.40;93.90;;;;;;5114819;28;19929;-42
2022/04/07 11:26:49;;;;;;;;;;;16.50;93.00;;;;;;5114541;28;19911;-43
2022/04/07 11:29:29;;;;;;;;;;;16.30;93.60;;;;;;5114844;28;19911;-45
2022/04/07 11:32:04;;;;;;;;;;;16.60;93.90;;;;;;5114657;28;19957;-46
2022/04/07 11:34:37;;;;;;;;;;;16.70;93.40;;;;;;5114805;28;19923;-45
2022/04/07 11:37:09;;;;;;;;;;;16.50;93.90;;;;;;5114788;28;19943;-45
2022/04/07 11:39:38;;;;;;;;;;;16.40;94.30;;;;;;5114964;28;20362;-46
2022/04/07 11:42:03;;;;;;;;;;;16.30;94.40;;;;;;5114723;28;19933;-43
2022/04/07 11:44:29;;;;;;;;;;;16.20;94.30;;;;;;5114723;28;19998;-43
2022/04/07 11:46:59;;;;;;;;;;;16.30;95.10;;;;;;5114082;28;20295;-46
2022/04/07 11:49:24;;;;;;;;;;;16.30;94.00;;;;;;5114439;28;19915;-45
2022/04/07 11:51:50;;;;;;;;;;;16.40;94.00;;;;;;5114376;28;19929;-43
2022/04/07 11:54:16;;;;;;;;;;;16.50;93.90;;;;;;5114654;28;19912;-45
2022/04/07 11:56:42;;;;;;;;;;;16.80;94.20;;;;;;5114347;28;19911;-47
2022/04/07 11:59:09;;;;;;;;;;;17.00;93.70;;;;;;5114121;28;20372;-45
2022/04/07 12:01:35;;;;;;;;;;;17.10;93.50;;;;;;5114182;28;19908;-46
2022/04/07 12:04:02;;;;;;;;;;;17.10;93.40;;;;;;5112815;28;19909;-43
2022/04/07 12:06:34;;;;;;;;;;;17.00;93.30;;;;;;5114192;28;20243;-45
2022/04/07 12:09:02;;;;;;;;;;;16.90;93.70;;;;;;5113897;28;19924;-44
2022/04/07 12:11:28;;;;;;;;;;;16.90;93.70;;;;;;5113740;28;20373;-47
2022/04/07 12:13:55;;;;;;;;;;;17.00;93.70;;;;;;5114021;28;19912;-44
2022/04/07 12:16:22;;;;;;;;;;;17.00;94.60;;;;;;5112786;28;19908;-42
2022/04/07 12:18:51;;;;;;;;;;;17.10;93.20;;;;;;5113889;28;19954;-45
2022/04/07 12:21:17;;;;;;;;;;;17.10;93.20;;;;;;5113543;28;19912;-46
2022/04/07 12:23:42;;;;;;;;;;;16.80;93.60;;;;;;5112955;28;19908;-44
2022/04/07 12:26:08;;;;;;;;;;;16.70;94.20;;;;;;5113821;28;20278;-46
2022/04/07 12:28:38;;;;;;;;;;;16.60;93.80;;;;;;5112481;28;19915;-43
2022/04/07 12:31:21;;;;;;;;;;;16.40;93.70;;;;;;5113561;28;20341;-44
2022/04/07 12:33:49;;;;;;;;;;;16.10;94.30;;;;;;5113549;28;19953;-44
2022/04/07 12:36:27;;;;;;;;;;;16.00;94.40;;;;;;5113660;28;20340;-46
2022/04/07 12:39:08;;;;;;;;;;;16.10;94.60;;;;;;5113498;28;20020;-46
2022/04/07 12:41:35;;;;;;;;;;;15.90;94.20;;;;;;5113500;28;19961;-44
2022/04/07 12:44:01;;;;;;;;;;;15.90;94.80;;;;;;5113318;28;20452;-45
2022/04/07 12:46:42;;;;;;;;;;;16.10;95.00;;;;;;5113256;28;19943;-48
2022/04/07 12:49:07;;;;;;;;;;;16.30;94.90;;;;;;5113210;28;19916;-48
2022/04/07 12:51:33;;;;;;;;;;;16.40;94.70;;;;;;5113465;28;19912;-47
2022/04/07 12:54:05;;;;;;;;;;;16.50;94.60;;;;;;5113459;28;20003;-44
2022/04/07 12:56:31;;;;;;;;;;;16.60;94.50;;;;;;5113173;28;20410;-44
2022/04/07 12:59:01;;;;;;;;;;;16.40;94.20;;;;;;5113188;28;19946;-48
2022/04/07 13:01:27;;;;;;;;;;;16.30;93.90;;;;;;5113609;28;19907;-45
2022/04/07 13:03:54;;;;;;;;;;;16.20;93.80;;;;;;5113436;28;19914;-49
2022/04/07 13:06:20;;;;;;;;;;;16.30;94.70;;;;;;5111927;28;20298;-46
2022/04/07 13:08:45;;;;;;;;;;;16.30;94.40;;;;;;5113139;28;20362;-47
2022/04/07 13:11:12;;;;;;;;;;;16.40;94.80;;;;;;5113577;28;19908;-46
2022/04/07 13:13:38;;;;;;;;;;;16.30;94.40;;;;;;5113490;28;19908;-44
2022/04/07 13:16:04;;;;;;;;;;;16.00;94.50;;;;;;5113380;28;20323;-43
2022/04/07 13:18:29;;;;;;;;;;;15.80;94.40;;;;;;5113154;28;19908;-45
2022/04/07 13:20:55;;;;;;;;;;;15.80;95.00;;;;;;5112049;28;20006;-46
2022/04/07 13:23:20;;;;;;;;;;;15.60;95.20;;;;;;5113779;28;19955;-47
2022/04/07 13:25:46;;;;;;;;;;;15.50;95.50;;;;;;5113117;28;19908;-46
2022/04/07 13:28:11;;;;;;;;;;;15.40;95.90;;;;;;5113042;28;20359;-46
2022/04/07 13:30:37;;;;;;;;;;;15.30;96.30;;;;;;5112976;28;19912;-45
2022/04/07 13:33:02;;;;;;;;;;;15.20;97.20;;;;;;5112758;28;20388;-46
2022/04/07 13:35:28;;;;;;;;;;;15.20;96.60;;;;;;5113434;28;19915;-44
2022/04/07 13:37:57;;;;;;;;;;;14.70;97.70;;;;;;5113069;28;19972;-44
2022/04/07 13:40:25;;;;;;;;;;;14.50;98.80;;;;;;5113264;28;19961;-44
2022/04/07 13:42:50;;;;;;;;;;;14.10;99.90;;;;;;5112680;28;19908;-45
2022/04/07 13:45:16;;;;;;;;;;;13.90;99.90;;;;;;5114645;28;19908;-47
2022/04/07 13:47:42;;;;;;;;;;;13.90;99.90;;;;;;5115329;28;20279;-44
2022/04/07 13:50:07;;;;;;;;;;;13.90;99.90;;;;;;5116285;28;19919;-45
2022/04/07 13:52:33;;;;;;;;;;;13.90;99.90;;;;;;5115279;28;19916;-47
2022/04/07 13:54:58;;;;;;;;;;;14.00;99.90;;;;;;5116326;28;19956;-45
2022/04/07 13:57:24;;;;;;;;;;;14.00;99.90;;;;;;5116366;28;20418;-46
2022/04/07 13:59:50;;;;;;;;;;;14.10;99.90;;;;;;5117037;28;20006;-44
2022/04/07 14:02:16;;;;;;;;;;;14.10;99.90;;;;;;5115384;28;20052;-46
2022/04/07 14:04:41;;;;;;;;;;;14.10;99.90;;;;;;5115925;28;19908;-46
2022/04/07 14:07:07;;;;;;;;;;;14.20;99.90;;;;;;5114991;28;19968;-45
2022/04/07 14:09:34;;;;;;;;;;;14.40;99.90;;;;;;5116297;28;20306;-44
2022/04/07 14:11:59;;;;;;;;;;;14.40;99.90;;;;;;5115013;28;19911;-46
2022/04/07 14:14:26;;;;;;;;;;;14.50;99.90;;;;;;5115719;28;19915;-43
2022/04/07 14:16:51;;;;;;;;;;;14.50;99.90;;;;;;5114630;28;20255;-48
2022/04/07 14:19:17;;;;;;;;;;;14.40;99.90;;;;;;5116216;28;19927;-46